Terminal Aerodrome Forecast
Issued by NWS

Home | Current Version | Previous Version | Text Only | Print | Product List | Glossary On
Versions: 1 2 3 4 5 6 7 8 9 10 11 12 13 14 15 16 17 18 19 20 21 22 23 24 25 26 27 28 29 30 31 32
000
FTUS46 KMTR 022110 AAA
TAFSFO
TAF AMD
KSFO 022110Z 0221/0324 29015G20KT P6SM FEW016 BKN200
     FM030200 29010KT P6SM SCT012 BKN016
     FM031000 26008KT P6SM BKN012 OVC016
     FM031800 28012KT P6SM FEW012 SCT016=

USA.gov is the U.S. government's official web portal to all federal, state and local government web resources and services.